sensor_id;sensor_type;location;lat;lon;timestamp;P1;durP1;ratioP1;P2;durP2;ratioP2
77522;SDS011;66637;-29.628;-49.938;2023-05-07T00:00:10;5.50;;;3.40;;
77522;SDS011;66637;-29.628;-49.938;2023-05-07T00:02:45;5.40;;;3.30;;
77522;SDS011;66637;-29.628;-49.938;2023-05-07T00:05:16;6.00;;;3.78;;
77522;SDS011;66637;-29.628;-49.938;2023-05-07T00:07:47;7.13;;;4.10;;
77522;SDS011;66637;-29.628;-49.938;2023-05-07T00:10:20;7.07;;;3.70;;
77522;SDS011;66637;-29.628;-49.938;2023-05-07T00:12:51;7.22;;;3.80;;
77522;SDS011;66637;-29.628;-49.938;2023-05-07T00:15:25;8.18;;;4.15;;
77522;SDS011;66637;-29.628;-49.938;2023-05-07T00:17:56;10.32;;;4.18;;
77522;SDS011;66637;-29.628;-49.938;2023-05-07T00:20:29;8.10;;;4.20;;
77522;SDS011;66637;-29.628;-49.938;2023-05-07T00:23:03;7.97;;;4.07;;
77522;SDS011;66637;-29.628;-49.938;2023-05-07T00:25:34;9.60;;;4.32;;
77522;SDS011;66637;-29.628;-49.938;2023-05-07T00:28:04;6.68;;;4.00;;
77522;SDS011;66637;-29.628;-49.938;2023-05-07T00:30:36;5.70;;;3.72;;
77522;SDS011;66637;-29.628;-49.938;2023-05-07T00:33:07;8.02;;;4.20;;
77522;SDS011;66637;-29.628;-49.938;2023-05-07T00:35:39;7.40;;;3.70;;
77522;SDS011;66637;-29.628;-49.938;2023-05-07T00:38:10;8.18;;;3.63;;
77522;SDS011;66637;-29.628;-49.938;2023-05-07T00:40:41;8.15;;;3.85;;
77522;SDS011;66637;-29.628;-49.938;2023-05-07T00:43:14;10.18;;;5.63;;
77522;SDS011;66637;-29.628;-49.938;2023-05-07T00:45:46;7.35;;;5.20;;
77522;SDS011;66637;-29.628;-49.938;2023-05-07T00:48:22;7.97;;;4.18;;
77522;SDS011;66637;-29.628;-49.938;2023-05-07T00:50:57;7.38;;;3.58;;
77522;SDS011;66637;-29.628;-49.938;2023-05-07T00:53:29;8.80;;;3.83;;
77522;SDS011;66637;-29.628;-49.938;2023-05-07T00:56:03;6.80;;;3.53;;
77522;SDS011;66637;-29.628;-49.938;2023-05-07T00:58:36;7.80;;;4.03;;
77522;SDS011;66637;-29.628;-49.938;2023-05-07T01:01:07;6.68;;;4.13;;
77522;SDS011;66637;-29.628;-49.938;2023-05-07T01:03:37;6.93;;;3.95;;
77522;SDS011;66637;-29.628;-49.938;2023-05-07T01:06:10;6.07;;;3.60;;
77522;SDS011;66637;-29.628;-49.938;2023-05-07T01:08:43;7.05;;;4.25;;
77522;SDS011;66637;-29.628;-49.938;2023-05-07T01:11:14;9.38;;;4.40;;
77522;SDS011;66637;-29.628;-49.938;2023-05-07T01:13:47;7.28;;;4.80;;
77522;SDS011;66637;-29.628;-49.938;2023-05-07T01:16:21;9.25;;;4.82;;
77522;SDS011;66637;-29.628;-49.938;2023-05-07T01:18:53;6.65;;;4.72;;
77522;SDS011;66637;-29.628;-49.938;2023-05-07T01:21:25;9.35;;;5.55;;
77522;SDS011;66637;-29.628;-49.938;2023-05-07T01:23:58;8.80;;;5.70;;
77522;SDS011;66637;-29.628;-49.938;2023-05-07T01:26:34;7.60;;;5.30;;
77522;SDS011;66637;-29.628;-49.938;2023-05-07T01:29:06;8.38;;;5.38;;
77522;SDS011;66637;-29.628;-49.938;2023-05-07T01:31:36;7.93;;;5.45;;
77522;SDS011;66637;-29.628;-49.938;2023-05-07T01:34:09;10.93;;;5.53;;
77522;SDS011;66637;-29.628;-49.938;2023-05-07T01:36:43;9.23;;;5.55;;
77522;SDS011;66637;-29.628;-49.938;2023-05-07T01:39:15;8.15;;;5.38;;
77522;SDS011;66637;-29.628;-49.938;2023-05-07T01:41:48;81.07;;;12.05;;
77522;SDS011;66637;-29.628;-49.938;2023-05-07T01:44:22;99.00;;;14.15;;
77522;SDS011;66637;-29.628;-49.938;2023-05-07T01:46:54;80.20;;;13.38;;
77522;SDS011;66637;-29.628;-49.938;2023-05-07T01:49:27;77.35;;;12.73;;
77522;SDS011;66637;-29.628;-49.938;2023-05-07T01:51:59;75.25;;;11.20;;
77522;SDS011;66637;-29.628;-49.938;2023-05-07T01:54:30;56.50;;;9.88;;
77522;SDS011;66637;-29.628;-49.938;2023-05-07T01:57:03;87.13;;;13.25;;
77522;SDS011;66637;-29.628;-49.938;2023-05-07T01:59:34;101.03;;;15.23;;
77522;SDS011;66637;-29.628;-49.938;2023-05-07T02:02:05;106.70;;;16.23;;
77522;SDS011;66637;-29.628;-49.938;2023-05-07T02:07:16;86.63;;;15.70;;
77522;SDS011;66637;-29.628;-49.938;2023-05-07T02:09:47;96.57;;;14.38;;
77522;SDS011;66637;-29.628;-49.938;2023-05-07T02:12:19;99.18;;;15.27;;
77522;SDS011;66637;-29.628;-49.938;2023-05-07T02:14:51;120.50;;;17.33;;
77522;SDS011;66637;-29.628;-49.938;2023-05-07T02:17:22;107.82;;;16.73;;
77522;SDS011;66637;-29.628;-49.938;2023-05-07T02:19:53;112.40;;;17.50;;
77522;SDS011;66637;-29.628;-49.938;2023-05-07T02:22:24;102.75;;;16.25;;
77522;SDS011;66637;-29.628;-49.938;2023-05-07T02:24:55;77.93;;;14.10;;
77522;SDS011;66637;-29.628;-49.938;2023-05-07T02:27:27;87.97;;;14.10;;
77522;SDS011;66637;-29.628;-49.938;2023-05-07T02:29:59;68.32;;;12.50;;
77522;SDS011;66637;-29.628;-49.938;2023-05-07T02:35:29;49.45;;;11.43;;
77522;SDS011;66637;-29.628;-49.938;2023-05-07T02:38:01;47.85;;;12.48;;
77522;SDS011;66637;-29.628;-49.938;2023-05-07T02:40:47;52.00;;;11.38;;
77522;SDS011;66637;-29.628;-49.938;2023-05-07T02:43:19;52.75;;;12.55;;
77522;SDS011;66637;-29.628;-49.938;2023-05-07T02:45:59;54.83;;;12.57;;
77522;SDS011;66637;-29.628;-49.938;2023-05-07T02:48:42;62.58;;;12.77;;
77522;SDS011;66637;-29.628;-49.938;2023-05-07T02:51:13;68.93;;;13.65;;
77522;SDS011;66637;-29.628;-49.938;2023-05-07T02:53:46;62.55;;;13.23;;
77522;SDS011;66637;-29.628;-49.938;2023-05-07T02:56:18;78.30;;;14.07;;
77522;SDS011;66637;-29.628;-49.938;2023-05-07T02:58:50;158.90;;;19.98;;
77522;SDS011;66637;-29.628;-49.938;2023-05-07T03:01:26;113.60;;;19.15;;
77522;SDS011;66637;-29.628;-49.938;2023-05-07T03:04:06;126.70;;;17.55;;
77522;SDS011;66637;-29.628;-49.938;2023-05-07T03:06:36;100.35;;;16.98;;
77522;SDS011;66637;-29.628;-49.938;2023-05-07T03:09:07;90.20;;;15.52;;
77522;SDS011;66637;-29.628;-49.938;2023-05-07T03:11:40;100.90;;;15.65;;
77522;SDS011;66637;-29.628;-49.938;2023-05-07T03:14:13;97.05;;;15.85;;
77522;SDS011;66637;-29.628;-49.938;2023-05-07T03:16:44;98.25;;;16.05;;
77522;SDS011;66637;-29.628;-49.938;2023-05-07T03:19:15;83.45;;;14.45;;
77522;SDS011;66637;-29.628;-49.938;2023-05-07T03:21:46;73.43;;;14.95;;
77522;SDS011;66637;-29.628;-49.938;2023-05-07T03:24:27;76.53;;;15.20;;
77522;SDS011;66637;-29.628;-49.938;2023-05-07T03:26:58;83.07;;;15.55;;
77522;SDS011;66637;-29.628;-49.938;2023-05-07T03:29:30;74.07;;;15.77;;
77522;SDS011;66637;-29.628;-49.938;2023-05-07T03:32:02;74.72;;;16.42;;
77522;SDS011;66637;-29.628;-49.938;2023-05-07T03:34:35;68.60;;;16.13;;
77522;SDS011;66637;-29.628;-49.938;2023-05-07T03:37:06;81.80;;;16.35;;
77522;SDS011;66637;-29.628;-49.938;2023-05-07T03:39:41;77.68;;;15.00;;
77522;SDS011;66637;-29.628;-49.938;2023-05-07T03:42:12;87.10;;;16.90;;
77522;SDS011;66637;-29.628;-49.938;2023-05-07T03:44:45;78.25;;;17.20;;
77522;SDS011;66637;-29.628;-49.938;2023-05-07T03:47:18;74.00;;;16.73;;
77522;SDS011;66637;-29.628;-49.938;2023-05-07T03:49:49;103.47;;;18.40;;
77522;SDS011;66637;-29.628;-49.938;2023-05-07T03:52:24;96.72;;;17.95;;
77522;SDS011;66637;-29.628;-49.938;2023-05-07T03:54:57;113.63;;;20.73;;
77522;SDS011;66637;-29.628;-49.938;2023-05-07T03:57:29;103.57;;;20.75;;
77522;SDS011;66637;-29.628;-49.938;2023-05-07T04:00:01;66.82;;;16.75;;
77522;SDS011;66637;-29.628;-49.938;2023-05-07T04:02:46;70.60;;;16.05;;
77522;SDS011;66637;-29.628;-49.938;2023-05-07T04:05:25;77.15;;;18.38;;
77522;SDS011;66637;-29.628;-49.938;2023-05-07T04:08:00;107.65;;;20.23;;
77522;SDS011;66637;-29.628;-49.938;2023-05-07T04:10:38;100.47;;;19.08;;
77522;SDS011;66637;-29.628;-49.938;2023-05-07T04:13:11;98.20;;;19.85;;
77522;SDS011;66637;-29.628;-49.938;2023-05-07T04:15:43;95.40;;;19.10;;
77522;SDS011;66637;-29.628;-49.938;2023-05-07T04:18:18;70.15;;;17.15;;
77522;SDS011;66637;-29.628;-49.938;2023-05-07T04:20:52;48.47;;;14.80;;
77522;SDS011;66637;-29.628;-49.938;2023-05-07T04:23:24;34.55;;;13.35;;
77522;SDS011;66637;-29.628;-49.938;2023-05-07T04:25:57;26.55;;;13.40;;
77522;SDS011;66637;-29.628;-49.938;2023-05-07T04:28:36;23.98;;;12.98;;
77522;SDS011;66637;-29.628;-49.938;2023-05-07T04:31:07;23.83;;;12.43;;
77522;SDS011;66637;-29.628;-49.938;2023-05-07T04:33:40;20.00;;;11.25;;
77522;SDS011;66637;-29.628;-49.938;2023-05-07T04:36:14;23.08;;;12.65;;
77522;SDS011;66637;-29.628;-49.938;2023-05-07T04:38:57;20.25;;;12.07;;
77522;SDS011;66637;-29.628;-49.938;2023-05-07T04:41:28;48.88;;;14.82;;
77522;SDS011;66637;-29.628;-49.938;2023-05-07T04:44:01;76.28;;;17.70;;
77522;SDS011;66637;-29.628;-49.938;2023-05-07T04:46:34;103.32;;;20.08;;
77522;SDS011;66637;-29.628;-49.938;2023-05-07T04:49:06;83.60;;;18.58;;
77522;SDS011;66637;-29.628;-49.938;2023-05-07T04:51:37;77.78;;;18.10;;
77522;SDS011;66637;-29.628;-49.938;2023-05-07T04:54:09;77.55;;;18.65;;
77522;SDS011;66637;-29.628;-49.938;2023-05-07T04:56:40;94.00;;;20.98;;
77522;SDS011;66637;-29.628;-49.938;2023-05-07T04:59:11;99.68;;;21.55;;
77522;SDS011;66637;-29.628;-49.938;2023-05-07T05:01:44;81.60;;;20.95;;
77522;SDS011;66637;-29.628;-49.938;2023-05-07T05:04:16;102.97;;;22.65;;
77522;SDS011;66637;-29.628;-49.938;2023-05-07T05:06:48;111.90;;;24.05;;
77522;SDS011;66637;-29.628;-49.938;2023-05-07T05:09:19;128.40;;;26.25;;
77522;SDS011;66637;-29.628;-49.938;2023-05-07T05:11:50;100.07;;;23.55;;
77522;SDS011;66637;-29.628;-49.938;2023-05-07T05:14:26;76.00;;;19.17;;
77522;SDS011;66637;-29.628;-49.938;2023-05-07T05:16:58;51.47;;;16.67;;
77522;SDS011;66637;-29.628;-49.938;2023-05-07T05:19:29;40.40;;;15.65;;
77522;SDS011;66637;-29.628;-49.938;2023-05-07T05:22:04;30.20;;;13.52;;
77522;SDS011;66637;-29.628;-49.938;2023-05-07T05:24:35;30.98;;;14.25;;
77522;SDS011;66637;-29.628;-49.938;2023-05-07T05:27:10;22.30;;;13.25;;
77522;SDS011;66637;-29.628;-49.938;2023-05-07T05:29:40;25.52;;;14.15;;
77522;SDS011;66637;-29.628;-49.938;2023-05-07T05:32:11;34.67;;;14.65;;
77522;SDS011;66637;-29.628;-49.938;2023-05-07T05:34:43;34.88;;;14.57;;
77522;SDS011;66637;-29.628;-49.938;2023-05-07T05:37:19;39.13;;;15.40;;
77522;SDS011;66637;-29.628;-49.938;2023-05-07T05:39:50;46.08;;;14.15;;
77522;SDS011;66637;-29.628;-49.938;2023-05-07T05:42:23;40.22;;;14.18;;
77522;SDS011;66637;-29.628;-49.938;2023-05-07T05:44:55;38.67;;;14.07;;
77522;SDS011;66637;-29.628;-49.938;2023-05-07T05:47:26;48.35;;;13.93;;
77522;SDS011;66637;-29.628;-49.938;2023-05-07T05:49:59;41.70;;;13.68;;
77522;SDS011;66637;-29.628;-49.938;2023-05-07T05:52:30;53.10;;;15.00;;
77522;SDS011;66637;-29.628;-49.938;2023-05-07T05:55:01;90.88;;;17.35;;
77522;SDS011;66637;-29.628;-49.938;2023-05-07T05:57:33;72.50;;;16.48;;
77522;SDS011;66637;-29.628;-49.938;2023-05-07T06:00:07;76.43;;;15.50;;
77522;SDS011;66637;-29.628;-49.938;2023-05-07T06:02:45;48.85;;;14.55;;
77522;SDS011;66637;-29.628;-49.938;2023-05-07T06:05:25;62.28;;;15.45;;
77522;SDS011;66637;-29.628;-49.938;2023-05-07T06:07:57;54.78;;;15.18;;
77522;SDS011;66637;-29.628;-49.938;2023-05-07T06:10:32;65.35;;;16.35;;
77522;SDS011;66637;-29.628;-49.938;2023-05-07T06:13:05;60.53;;;16.02;;
77522;SDS011;66637;-29.628;-49.938;2023-05-07T06:15:37;83.82;;;17.45;;
77522;SDS011;66637;-29.628;-49.938;2023-05-07T06:18:12;68.85;;;17.35;;
77522;SDS011;66637;-29.628;-49.938;2023-05-07T06:20:43;63.08;;;16.45;;
77522;SDS011;66637;-29.628;-49.938;2023-05-07T06:23:23;63.97;;;16.85;;
77522;SDS011;66637;-29.628;-49.938;2023-05-07T06:26:03;92.80;;;18.15;;
77522;SDS011;66637;-29.628;-49.938;2023-05-07T06:28:39;61.38;;;17.10;;
77522;SDS011;66637;-29.628;-49.938;2023-05-07T06:31:13;64.22;;;17.42;;
77522;SDS011;66637;-29.628;-49.938;2023-05-07T06:34:04;45.75;;;15.10;;
77522;SDS011;66637;-29.628;-49.938;2023-05-07T06:36:38;37.35;;;13.68;;
77522;SDS011;66637;-29.628;-49.938;2023-05-07T06:39:24;30.40;;;12.40;;
77522;SDS011;66637;-29.628;-49.938;2023-05-07T06:42:02;33.58;;;12.60;;
77522;SDS011;66637;-29.628;-49.938;2023-05-07T06:44:40;24.60;;;11.90;;
77522;SDS011;66637;-29.628;-49.938;2023-05-07T06:47:14;24.67;;;12.25;;
77522;SDS011;66637;-29.628;-49.938;2023-05-07T06:49:49;29.10;;;12.43;;
77522;SDS011;66637;-29.628;-49.938;2023-05-07T06:52:23;30.42;;;13.13;;
77522;SDS011;66637;-29.628;-49.938;2023-05-07T06:54:55;30.88;;;13.45;;
77522;SDS011;66637;-29.628;-49.938;2023-05-07T06:57:27;32.92;;;13.57;;
77522;SDS011;66637;-29.628;-49.938;2023-05-07T06:59:59;32.90;;;13.52;;
77522;SDS011;66637;-29.628;-49.938;2023-05-07T07:02:36;32.55;;;13.23;;
77522;SDS011;66637;-29.628;-49.938;2023-05-07T07:05:07;28.80;;;13.13;;
77522;SDS011;66637;-29.628;-49.938;2023-05-07T07:07:39;31.83;;;13.00;;
77522;SDS011;66637;-29.628;-49.938;2023-05-07T07:10:10;30.08;;;12.70;;
77522;SDS011;66637;-29.628;-49.938;2023-05-07T07:12:42;30.10;;;13.43;;
77522;SDS011;66637;-29.628;-49.938;2023-05-07T07:15:14;27.45;;;14.55;;
77522;SDS011;66637;-29.628;-49.938;2023-05-07T07:17:48;34.67;;;13.52;;
77522;SDS011;66637;-29.628;-49.938;2023-05-07T07:20:20;29.92;;;14.63;;
77522;SDS011;66637;-29.628;-49.938;2023-05-07T07:22:51;27.77;;;13.73;;
77522;SDS011;66637;-29.628;-49.938;2023-05-07T07:25:22;28.25;;;14.23;;
77522;SDS011;66637;-29.628;-49.938;2023-05-07T07:27:54;28.67;;;14.30;;
77522;SDS011;66637;-29.628;-49.938;2023-05-07T07:30:27;36.83;;;15.07;;
77522;SDS011;66637;-29.628;-49.938;2023-05-07T07:33:01;31.77;;;14.98;;
77522;SDS011;66637;-29.628;-49.938;2023-05-07T07:35:45;34.42;;;15.93;;
77522;SDS011;66637;-29.628;-49.938;2023-05-07T07:38:15;38.83;;;14.65;;
77522;SDS011;66637;-29.628;-49.938;2023-05-07T07:41:10;36.50;;;15.55;;
77522;SDS011;66637;-29.628;-49.938;2023-05-07T07:43:40;40.22;;;15.50;;
77522;SDS011;66637;-29.628;-49.938;2023-05-07T07:46:11;43.17;;;16.08;;
77522;SDS011;66637;-29.628;-49.938;2023-05-07T07:48:43;61.63;;;16.80;;
77522;SDS011;66637;-29.628;-49.938;2023-05-07T07:51:15;74.85;;;19.13;;
77522;SDS011;66637;-29.628;-49.938;2023-05-07T07:53:45;76.30;;;18.92;;
77522;SDS011;66637;-29.628;-49.938;2023-05-07T07:56:17;72.13;;;19.02;;
77522;SDS011;66637;-29.628;-49.938;2023-05-07T07:58:49;68.55;;;17.85;;
77522;SDS011;66637;-29.628;-49.938;2023-05-07T08:01:22;67.40;;;18.42;;
77522;SDS011;66637;-29.628;-49.938;2023-05-07T08:03:53;50.05;;;16.38;;
77522;SDS011;66637;-29.628;-49.938;2023-05-07T08:06:23;47.30;;;16.52;;
77522;SDS011;66637;-29.628;-49.938;2023-05-07T08:08:55;47.53;;;16.15;;
77522;SDS011;66637;-29.628;-49.938;2023-05-07T08:11:28;38.22;;;16.08;;
77522;SDS011;66637;-29.628;-49.938;2023-05-07T08:13:59;32.55;;;15.93;;
77522;SDS011;66637;-29.628;-49.938;2023-05-07T08:16:30;34.55;;;16.13;;
77522;SDS011;66637;-29.628;-49.938;2023-05-07T08:19:02;30.40;;;16.02;;
77522;SDS011;66637;-29.628;-49.938;2023-05-07T08:21:38;29.20;;;15.38;;
77522;SDS011;66637;-29.628;-49.938;2023-05-07T08:24:11;33.20;;;16.30;;
77522;SDS011;66637;-29.628;-49.938;2023-05-07T08:26:46;28.85;;;16.05;;
77522;SDS011;66637;-29.628;-49.938;2023-05-07T08:29:18;30.80;;;16.10;;
77522;SDS011;66637;-29.628;-49.938;2023-05-07T08:31:51;28.08;;;15.23;;
77522;SDS011;66637;-29.628;-49.938;2023-05-07T08:34:23;27.42;;;15.38;;
77522;SDS011;66637;-29.628;-49.938;2023-05-07T08:36:58;27.13;;;14.55;;
77522;SDS011;66637;-29.628;-49.938;2023-05-07T08:39:32;23.83;;;13.40;;
77522;SDS011;66637;-29.628;-49.938;2023-05-07T08:42:07;29.13;;;13.57;;
77522;SDS011;66637;-29.628;-49.938;2023-05-07T08:47:17;23.95;;;14.68;;
77522;SDS011;66637;-29.628;-49.938;2023-05-07T08:49:51;26.33;;;14.57;;
77522;SDS011;66637;-29.628;-49.938;2023-05-07T08:52:27;28.75;;;14.25;;
77522;SDS011;66637;-29.628;-49.938;2023-05-07T08:54:59;29.20;;;15.13;;
77522;SDS011;66637;-29.628;-49.938;2023-05-07T08:57:32;33.47;;;15.45;;
77522;SDS011;66637;-29.628;-49.938;2023-05-07T09:00:19;34.65;;;15.75;;
77522;SDS011;66637;-29.628;-49.938;2023-05-07T09:02:53;41.60;;;15.70;;
77522;SDS011;66637;-29.628;-49.938;2023-05-07T09:05:25;42.95;;;16.52;;
77522;SDS011;66637;-29.628;-49.938;2023-05-07T09:07:59;40.97;;;15.57;;
77522;SDS011;66637;-29.628;-49.938;2023-05-07T09:10:32;48.78;;;16.75;;
77522;SDS011;66637;-29.628;-49.938;2023-05-07T09:13:05;80.68;;;17.85;;
77522;SDS011;66637;-29.628;-49.938;2023-05-07T09:15:36;71.63;;;18.38;;
77522;SDS011;66637;-29.628;-49.938;2023-05-07T09:18:07;87.30;;;20.27;;
77522;SDS011;66637;-29.628;-49.938;2023-05-07T09:20:41;127.50;;;23.15;;
77522;SDS011;66637;-29.628;-49.938;2023-05-07T09:23:12;104.38;;;21.92;;
77522;SDS011;66637;-29.628;-49.938;2023-05-07T09:25:45;109.47;;;21.00;;
77522;SDS011;66637;-29.628;-49.938;2023-05-07T09:28:26;102.20;;;20.17;;
77522;SDS011;66637;-29.628;-49.938;2023-05-07T09:30:56;72.93;;;18.92;;
77522;SDS011;66637;-29.628;-49.938;2023-05-07T09:33:28;80.93;;;19.20;;
77522;SDS011;66637;-29.628;-49.938;2023-05-07T09:36:06;72.32;;;19.90;;
77522;SDS011;66637;-29.628;-49.938;2023-05-07T09:38:41;64.65;;;20.05;;
77522;SDS011;66637;-29.628;-49.938;2023-05-07T09:41:13;67.53;;;18.33;;
77522;SDS011;66637;-29.628;-49.938;2023-05-07T09:43:59;64.55;;;18.42;;
77522;SDS011;66637;-29.628;-49.938;2023-05-07T09:46:37;73.75;;;19.80;;
77522;SDS011;66637;-29.628;-49.938;2023-05-07T09:49:21;72.15;;;19.63;;
77522;SDS011;66637;-29.628;-49.938;2023-05-07T09:52:01;87.10;;;20.05;;
77522;SDS011;66637;-29.628;-49.938;2023-05-07T09:54:41;93.55;;;19.45;;
77522;SDS011;66637;-29.628;-49.938;2023-05-07T09:57:21;52.83;;;18.05;;
77522;SDS011;66637;-29.628;-49.938;2023-05-07T09:59:59;70.43;;;17.70;;
77522;SDS011;66637;-29.628;-49.938;2023-05-07T10:05:23;62.10;;;18.58;;
77522;SDS011;66637;-29.628;-49.938;2023-05-07T10:07:59;67.47;;;17.35;;
77522;SDS011;66637;-29.628;-49.938;2023-05-07T10:10:37;44.35;;;16.88;;
77522;SDS011;66637;-29.628;-49.938;2023-05-07T10:13:16;39.03;;;17.65;;
77522;SDS011;66637;-29.628;-49.938;2023-05-07T10:15:52;41.67;;;18.63;;
77522;SDS011;66637;-29.628;-49.938;2023-05-07T10:18:40;41.80;;;18.83;;
77522;SDS011;66637;-29.628;-49.938;2023-05-07T10:21:20;41.25;;;18.58;;
77522;SDS011;66637;-29.628;-49.938;2023-05-07T10:23:58;41.58;;;18.90;;
77522;SDS011;66637;-29.628;-49.938;2023-05-07T10:26:48;54.33;;;20.08;;
77522;SDS011;66637;-29.628;-49.938;2023-05-07T10:32:37;49.72;;;19.63;;
77522;SDS011;66637;-29.628;-49.938;2023-05-07T10:35:37;46.53;;;19.70;;
77522;SDS011;66637;-29.628;-49.938;2023-05-07T10:38:16;43.85;;;20.13;;
77522;SDS011;66637;-29.628;-49.938;2023-05-07T10:40:47;39.83;;;18.10;;
77522;SDS011;66637;-29.628;-49.938;2023-05-07T10:43:22;43.53;;;18.83;;
77522;SDS011;66637;-29.628;-49.938;2023-05-07T10:46:10;55.33;;;20.00;;
77522;SDS011;66637;-29.628;-49.938;2023-05-07T10:49:09;62.55;;;19.70;;
77522;SDS011;66637;-29.628;-49.938;2023-05-07T10:52:06;54.85;;;19.42;;
77522;SDS011;66637;-29.628;-49.938;2023-05-07T11:01:17;45.92;;;19.50;;
77522;SDS011;66637;-29.628;-49.938;2023-05-07T11:08:16;44.63;;;16.67;;
77522;SDS011;66637;-29.628;-49.938;2023-05-07T11:10:55;50.45;;;15.88;;
77522;SDS011;66637;-29.628;-49.938;2023-05-07T11:13:47;33.83;;;17.17;;
77522;SDS011;66637;-29.628;-49.938;2023-05-07T11:16:36;52.55;;;15.73;;
77522;SDS011;66637;-29.628;-49.938;2023-05-07T11:22:39;28.20;;;15.52;;
77522;SDS011;66637;-29.628;-49.938;2023-05-07T11:25:32;25.30;;;13.77;;
77522;SDS011;66637;-29.628;-49.938;2023-05-07T11:28:29;32.97;;;14.63;;
77522;SDS011;66637;-29.628;-49.938;2023-05-07T11:31:02;23.92;;;13.13;;
77522;SDS011;66637;-29.628;-49.938;2023-05-07T11:33:36;25.73;;;12.98;;
77522;SDS011;66637;-29.628;-49.938;2023-05-07T11:36:14;26.73;;;12.25;;
77522;SDS011;66637;-29.628;-49.938;2023-05-07T11:38:48;46.53;;;13.45;;
77522;SDS011;66637;-29.628;-49.938;2023-05-07T11:41:20;35.53;;;13.55;;
77522;SDS011;66637;-29.628;-49.938;2023-05-07T11:43:57;38.03;;;14.57;;
77522;SDS011;66637;-29.628;-49.938;2023-05-07T11:46:29;33.10;;;13.98;;
77522;SDS011;66637;-29.628;-49.938;2023-05-07T11:49:01;26.95;;;13.65;;
77522;SDS011;66637;-29.628;-49.938;2023-05-07T11:51:34;30.75;;;13.95;;
77522;SDS011;66637;-29.628;-49.938;2023-05-07T11:54:08;22.52;;;12.23;;
77522;SDS011;66637;-29.628;-49.938;2023-05-07T11:56:43;22.92;;;13.05;;
77522;SDS011;66637;-29.628;-49.938;2023-05-07T11:59:19;17.35;;;12.10;;
77522;SDS011;66637;-29.628;-49.938;2023-05-07T12:01:50;47.03;;;14.90;;
77522;SDS011;66637;-29.628;-49.938;2023-05-07T12:04:20;59.70;;;15.88;;
77522;SDS011;66637;-29.628;-49.938;2023-05-07T12:06:54;58.65;;;16.25;;
77522;SDS011;66637;-29.628;-49.938;2023-05-07T12:09:27;55.70;;;14.98;;
77522;SDS011;66637;-29.628;-49.938;2023-05-07T12:12:03;56.63;;;14.98;;
77522;SDS011;66637;-29.628;-49.938;2023-05-07T12:14:38;50.30;;;13.85;;
77522;SDS011;66637;-29.628;-49.938;2023-05-07T12:17:12;47.17;;;14.43;;
77522;SDS011;66637;-29.628;-49.938;2023-05-07T12:19:44;41.35;;;13.98;;
77522;SDS011;66637;-29.628;-49.938;2023-05-07T12:22:17;41.28;;;14.05;;
77522;SDS011;66637;-29.628;-49.938;2023-05-07T12:24:50;39.03;;;14.25;;
77522;SDS011;66637;-29.628;-49.938;2023-05-07T12:27:28;45.00;;;14.95;;
77522;SDS011;66637;-29.628;-49.938;2023-05-07T12:30:00;65.90;;;16.90;;
77522;SDS011;66637;-29.628;-49.938;2023-05-07T12:32:31;66.28;;;16.73;;
77522;SDS011;66637;-29.628;-49.938;2023-05-07T12:35:05;61.00;;;16.58;;
77522;SDS011;66637;-29.628;-49.938;2023-05-07T12:37:54;23.02;;;12.27;;
77522;SDS011;66637;-29.628;-49.938;2023-05-07T12:40:46;64.93;;;16.02;;
77522;SDS011;66637;-29.628;-49.938;2023-05-07T12:43:24;43.72;;;13.27;;
77522;SDS011;66637;-29.628;-49.938;2023-05-07T12:45:59;49.50;;;13.35;;
77522;SDS011;66637;-29.628;-49.938;2023-05-07T12:48:33;48.28;;;13.45;;
77522;SDS011;66637;-29.628;-49.938;2023-05-07T12:51:06;40.60;;;12.80;;
77522;SDS011;66637;-29.628;-49.938;2023-05-07T12:53:40;45.35;;;13.18;;
77522;SDS011;66637;-29.628;-49.938;2023-05-07T12:56:15;44.53;;;13.10;;
77522;SDS011;66637;-29.628;-49.938;2023-05-07T12:58:48;52.72;;;12.80;;
77522;SDS011;66637;-29.628;-49.938;2023-05-07T13:01:20;65.28;;;14.60;;
77522;SDS011;66637;-29.628;-49.938;2023-05-07T13:03:54;55.67;;;13.10;;
77522;SDS011;66637;-29.628;-49.938;2023-05-07T13:06:25;65.53;;;14.20;;
77522;SDS011;66637;-29.628;-49.938;2023-05-07T13:08:55;65.00;;;13.35;;
77522;SDS011;66637;-29.628;-49.938;2023-05-07T13:11:26;73.35;;;13.48;;
77522;SDS011;66637;-29.628;-49.938;2023-05-07T13:13:57;59.97;;;12.43;;
77522;SDS011;66637;-29.628;-49.938;2023-05-07T13:16:28;59.83;;;12.13;;
77522;SDS011;66637;-29.628;-49.938;2023-05-07T13:19:00;48.38;;;11.90;;
77522;SDS011;66637;-29.628;-49.938;2023-05-07T13:21:32;51.45;;;11.88;;
77522;SDS011;66637;-29.628;-49.938;2023-05-07T13:24:03;36.60;;;9.20;;
77522;SDS011;66637;-29.628;-49.938;2023-05-07T13:26:35;49.47;;;10.85;;
77522;SDS011;66637;-29.628;-49.938;2023-05-07T13:29:06;35.22;;;9.10;;
77522;SDS011;66637;-29.628;-49.938;2023-05-07T13:31:45;48.45;;;9.43;;
77522;SDS011;66637;-29.628;-49.938;2023-05-07T13:34:17;45.95;;;10.32;;
77522;SDS011;66637;-29.628;-49.938;2023-05-07T13:36:50;41.13;;;9.57;;
77522;SDS011;66637;-29.628;-49.938;2023-05-07T13:39:21;46.83;;;9.77;;
77522;SDS011;66637;-29.628;-49.938;2023-05-07T13:41:53;59.60;;;12.43;;
77522;SDS011;66637;-29.628;-49.938;2023-05-07T13:44:26;56.33;;;11.30;;
77522;SDS011;66637;-29.628;-49.938;2023-05-07T13:46:57;49.67;;;10.70;;
77522;SDS011;66637;-29.628;-49.938;2023-05-07T13:49:33;34.47;;;10.50;;
77522;SDS011;66637;-29.628;-49.938;2023-05-07T13:52:06;46.13;;;11.35;;
77522;SDS011;66637;-29.628;-49.938;2023-05-07T13:54:37;60.25;;;14.68;;
77522;SDS011;66637;-29.628;-49.938;2023-05-07T13:57:08;52.10;;;14.93;;
77522;SDS011;66637;-29.628;-49.938;2023-05-07T13:59:44;54.65;;;15.60;;
77522;SDS011;66637;-29.628;-49.938;2023-05-07T14:02:15;44.75;;;15.05;;
77522;SDS011;66637;-29.628;-49.938;2023-05-07T14:04:58;42.33;;;15.35;;
77522;SDS011;66637;-29.628;-49.938;2023-05-07T14:07:30;45.85;;;16.05;;
77522;SDS011;66637;-29.628;-49.938;2023-05-07T14:10:04;49.42;;;16.67;;
77522;SDS011;66637;-29.628;-49.938;2023-05-07T14:12:36;53.53;;;17.48;;
77522;SDS011;66637;-29.628;-49.938;2023-05-07T14:15:08;56.10;;;17.83;;
77522;SDS011;66637;-29.628;-49.938;2023-05-07T14:17:39;48.72;;;17.95;;
77522;SDS011;66637;-29.628;-49.938;2023-05-07T14:20:11;44.60;;;17.70;;
77522;SDS011;66637;-29.628;-49.938;2023-05-07T14:22:45;65.55;;;19.85;;
77522;SDS011;66637;-29.628;-49.938;2023-05-07T14:27:52;56.58;;;19.88;;
77522;SDS011;66637;-29.628;-49.938;2023-05-07T14:30:24;54.97;;;20.10;;
77522;SDS011;66637;-29.628;-49.938;2023-05-07T14:32:55;61.72;;;20.83;;
77522;SDS011;66637;-29.628;-49.938;2023-05-07T14:35:27;43.20;;;19.10;;
77522;SDS011;66637;-29.628;-49.938;2023-05-07T14:37:58;54.78;;;21.35;;
77522;SDS011;66637;-29.628;-49.938;2023-05-07T14:40:34;55.33;;;20.80;;
77522;SDS011;66637;-29.628;-49.938;2023-05-07T14:43:07;65.00;;;21.85;;
77522;SDS011;66637;-29.628;-49.938;2023-05-07T14:45:50;54.63;;;22.08;;
77522;SDS011;66637;-29.628;-49.938;2023-05-07T14:48:22;59.95;;;22.27;;
77522;SDS011;66637;-29.628;-49.938;2023-05-07T14:50:55;51.33;;;21.00;;
77522;SDS011;66637;-29.628;-49.938;2023-05-07T14:53:34;54.63;;;22.67;;
77522;SDS011;66637;-29.628;-49.938;2023-05-07T14:56:13;48.00;;;20.48;;